Time;durP1;ratioP1;P1;durP2;ratioP2;P2;SDS_P1;SDS_P2;PMS_P1;PMS_P2;Temp;Humidity;BMP_temperature;BMP_pressure;BME280_temperature;BME280_humidity;BME280_pressure;Samples;Min_cycle;Max_cycle;Signal;HPM_P1;HPM_P2
2023/03/26 00:00:48;;;;;;;12.32;8.30;;;;;;;;;;10185225;28;20047;-71
2023/03/26 00:05:42;;;;;;;11.43;8.10;;;;;;;;;;10184360;28;20040;-71
2023/03/26 00:10:39;;;;;;;13.80;8.13;;;;;;;;;;10184610;28;20048;-72
2023/03/26 00:15:34;;;;;;;11.38;8.65;;;;;;;;;;10185299;28;20059;-72
2023/03/26 00:20:29;;;;;;;9.70;8.05;;;;;;;;;;10190220;28;20632;-72
2023/03/26 00:25:22;;;;;;;12.45;7.97;;;;;;;;;;10192507;28;20052;-72
2023/03/26 00:30:16;;;;;;;11.18;7.78;;;;;;;;;;10192089;28;20093;-71
2023/03/26 00:35:09;;;;;;;17.17;10.02;;;;;;;;;;10186808;28;20165;-71
2023/03/26 00:40:06;;;;;;;16.17;8.98;;;;;;;;;;10192513;28;20632;-71
2023/03/26 00:45:00;;;;;;;14.23;10.52;;;;;;;;;;10192319;28;20071;-71
2023/03/26 00:49:54;;;;;;;13.80;9.35;;;;;;;;;;10191781;28;20090;-71
2023/03/26 00:54:47;;;;;;;16.40;10.27;;;;;;;;;;10191895;28;20127;-71
2023/03/26 00:59:41;;;;;;;16.38;10.65;;;;;;;;;;10191135;28;20040;-71
2023/03/26 01:04:34;;;;;;;10.63;9.00;;;;;;;;;;10172320;28;20059;-71
2023/03/26 01:09:35;;;;;;;12.57;10.07;;;;;;;;;;10191170;28;20048;-72
2023/03/26 01:14:36;;;;;;;16.98;11.57;;;;;;;;;;10181246;28;20044;-71
2023/03/26 01:19:41;;;;;;;15.45;9.00;;;;;;;;;;10188575;28;20059;-71
2023/03/26 01:24:33;;;;;;;14.07;10.38;;;;;;;;;;10190856;28;20040;-71
2023/03/26 01:30:04;;;;;;;11.73;9.10;;;;;;;;;;10190010;28;20838;-72
2023/03/26 01:35:31;;;;;;;14.00;8.57;;;;;;;;;;10115061;28;20052;-72
2023/03/26 01:40:30;;;;;;;12.43;8.85;;;;;;;;;;10154336;28;20071;-72
2023/03/26 01:45:29;;;;;;;10.68;8.95;;;;;;;;;;10189069;28;20048;-72
2023/03/26 01:50:23;;;;;;;11.70;8.88;;;;;;;;;;10154392;28;20500;-72
2023/03/26 01:55:16;;;;;;;16.77;7.95;;;;;;;;;;10188632;28;20068;-71
2023/03/26 02:00:17;;;;;;;14.85;9.77;;;;;;;;;;10175106;28;20056;-71
2023/03/26 02:05:39;;;;;;;17.52;10.60;;;;;;;;;;10176088;28;20051;-71
2023/03/26 02:10:37;;;;;;;12.30;10.57;;;;;;;;;;10188465;28;20056;-72
2023/03/26 02:15:30;;;;;;;17.23;10.50;;;;;;;;;;10188997;28;20083;-71
2023/03/26 02:20:24;;;;;;;16.13;11.13;;;;;;;;;;10188558;28;20047;-71
2023/03/26 02:25:19;;;;;;;12.98;11.35;;;;;;;;;;10188036;28;20074;-71
2023/03/26 02:30:24;;;;;;;14.05;11.35;;;;;;;;;;10179896;28;20063;-72
2023/03/26 02:35:20;;;;;;;16.25;11.75;;;;;;;;;;10187703;28;20051;-71
2023/03/26 02:40:21;;;;;;;14.02;11.48;;;;;;;;;;10163134;28;20075;-72
2023/03/26 02:45:16;;;;;;;16.73;11.57;;;;;;;;;;10170345;28;20401;-72
2023/03/26 02:50:31;;;;;;;17.50;13.80;;;;;;;;;;10177442;28;20420;-72
2023/03/26 02:55:44;;;;;;;18.67;12.25;;;;;;;;;;10174616;28;20060;-72
2023/03/26 03:00:38;;;;;;;13.60;12.15;;;;;;;;;;10169252;28;20412;-72
2023/03/26 03:05:56;;;;;;;16.08;10.45;;;;;;;;;;10169081;28;20044;-72
2023/03/26 03:11:09;;;;;;;17.87;10.83;;;;;;;;;;10170569;28;20052;-72
2023/03/26 03:16:07;;;;;;;12.55;7.10;;;;;;;;;;10159392;28;20079;-72
2023/03/26 03:21:01;;;;;;;5.50;4.15;;;;;;;;;;10170502;28;20102;-72
2023/03/26 03:25:56;;;;;;;5.22;3.50;;;;;;;;;;10171213;28;20071;-72
2023/03/26 03:30:56;;;;;;;5.80;4.15;;;;;;;;;;10183009;28;20087;-72
2023/03/26 03:35:55;;;;;;;5.28;4.07;;;;;;;;;;10160040;28;20071;-71
2023/03/26 03:40:49;;;;;;;6.75;3.97;;;;;;;;;;10168349;28;20044;-72
2023/03/26 03:45:42;;;;;;;7.97;3.95;;;;;;;;;;10183594;28;20062;-71
2023/03/26 03:51:00;;;;;;;8.60;3.78;;;;;;;;;;10183268;28;20052;-72
2023/03/26 03:56:08;;;;;;;9.38;4.10;;;;;;;;;;10181042;28;20116;-71
2023/03/26 04:01:21;;;;;;;5.05;4.55;;;;;;;;;;10194201;28;20054;-71
2023/03/26 04:06:24;;;;;;;5.90;3.85;;;;;;;;;;10181336;28;20504;-72
2023/03/26 04:11:17;;;;;;;6.43;4.03;;;;;;;;;;10191975;28;20052;-71
2023/03/26 04:16:36;;;;;;;5.07;4.40;;;;;;;;;;10189242;28;20062;-71
2023/03/26 04:21:31;;;;;;;9.13;3.72;;;;;;;;;;10178244;28;20057;-71
2023/03/26 04:26:29;;;;;;;5.68;4.38;;;;;;;;;;10163285;28;20050;-71
2023/03/26 04:31:30;;;;;;;7.72;5.65;;;;;;;;;;10191047;28;20523;-71
2023/03/26 04:36:28;;;;;;;9.70;5.60;;;;;;;;;;10184665;28;20144;-71
2023/03/26 04:41:25;;;;;;;9.68;5.15;;;;;;;;;;10150678;28;20408;-71
2023/03/26 04:46:32;;;;;;;10.73;5.68;;;;;;;;;;10099875;28;20063;-71
2023/03/26 04:51:37;;;;;;;9.50;5.93;;;;;;;;;;10109459;28;20041;-71
2023/03/26 04:56:59;;;;;;;12.15;7.13;;;;;;;;;;10109189;28;20063;-71
2023/03/26 05:02:05;;;;;;;8.27;6.10;;;;;;;;;;10109176;28;20497;-71
2023/03/26 05:07:10;;;;;;;9.73;7.13;;;;;;;;;;10108582;28;20129;-71
2023/03/26 05:12:09;;;;;;;11.52;7.70;;;;;;;;;;10092792;28;20135;-71
2023/03/26 05:17:29;;;;;;;7.27;5.83;;;;;;;;;;10098416;28;20058;-71
2023/03/26 05:22:23;;;;;;;13.95;6.60;;;;;;;;;;10098258;28;20383;-74
2023/03/26 05:27:42;;;;;;;6.70;5.97;;;;;;;;;;10091938;28;20060;-72
2023/03/26 05:32:36;;;;;;;8.55;5.43;;;;;;;;;;10103139;28;20045;-74
2023/03/26 05:37:31;;;;;;;15.20;6.10;;;;;;;;;;10102723;28;20062;-74
2023/03/26 05:42:29;;;;;;;9.07;7.33;;;;;;;;;;10104752;28;20076;-73
2023/03/26 05:47:38;;;;;;;;;;;;;;;;;;10103358;28;20307;-70
2023/03/26 05:52:32;;;;;;;14.85;7.18;;;;;;;;;;10107665;28;20377;-72
2023/03/26 05:57:51;;;;;;;;;;;;;;;;;;10100683;28;20535;-70
2023/03/26 06:03:04;;;;;;;11.73;7.25;;;;;;;;;;10089782;28;20006;-72
2023/03/26 06:08:26;;;;;;;10.90;7.70;;;;;;;;;;10105561;28;20103;-73
2023/03/26 06:13:20;;;;;;;11.60;8.32;;;;;;;;;;10107608;28;20056;-74
2023/03/26 06:18:15;;;;;;;17.10;9.82;;;;;;;;;;10104726;28;20094;-72
2023/03/26 06:23:16;;;;;;;13.82;9.10;;;;;;;;;;10106321;28;20053;-72
2023/03/26 06:28:30;;;;;;;18.55;10.30;;;;;;;;;;10105982;28;20688;-69
2023/03/26 06:33:37;;;;;;;13.77;11.15;;;;;;;;;;10106405;28;20093;-71
2023/03/26 06:38:31;;;;;;;14.20;11.65;;;;;;;;;;10106732;28;20076;-69
2023/03/26 06:43:27;;;;;;;25.50;15.32;;;;;;;;;;10103209;28;20045;-66
2023/03/26 06:48:55;;;;;;;14.07;10.85;;;;;;;;;;10079256;28;20098;-68
2023/03/26 06:54:17;;;;;;;12.88;9.57;;;;;;;;;;10181850;28;20409;-68
2023/03/26 06:59:17;;;;;;;13.52;8.98;;;;;;;;;;10167156;28;20593;-74
2023/03/26 07:04:39;;;;;;;9.85;8.85;;;;;;;;;;10129050;28;20056;-71
2023/03/26 07:09:51;;;;;;;11.70;10.35;;;;;;;;;;10131278;28;20520;-67
2023/03/26 07:15:10;;;;;;;12.75;11.45;;;;;;;;;;10144610;28;20052;-67
2023/03/26 07:20:23;;;;;;;11.38;10.38;;;;;;;;;;10138397;28;20102;-73
2023/03/26 07:25:20;;;;;;;11.02;7.43;;;;;;;;;;10147147;28;20045;-67
2023/03/26 07:30:52;;;;;;;13.75;8.65;;;;;;;;;;10127401;28;20071;-67
2023/03/26 07:36:11;;;;;;;17.55;10.65;;;;;;;;;;10137968;28;20417;-67
2023/03/26 07:41:30;;;;;;;11.60;10.40;;;;;;;;;;10104994;28;20151;-70
2023/03/26 07:46:56;;;;;;;14.75;12.23;;;;;;;;;;10061689;28;20060;-68
2023/03/26 07:52:00;;;;;;;16.92;13.88;;;;;;;;;;10112621;28;20102;-68
2023/03/26 07:57:43;;;;;;;19.52;16.00;;;;;;;;;;10128534;28;20049;-68
2023/03/26 08:03:06;;;;;;;17.95;15.68;;;;;;;;;;10133009;28;20047;-68
2023/03/26 08:08:37;;;;;;;19.83;14.43;;;;;;;;;;10127013;28;20041;-68
2023/03/26 08:14:04;;;;;;;17.77;15.43;;;;;;;;;;10127569;28;20144;-68
2023/03/26 08:19:30;;;;;;;15.05;12.98;;;;;;;;;;10126230;28;20052;-68
2023/03/26 08:24:30;;;;;;;15.52;14.02;;;;;;;;;;10067488;28;20041;-63
2023/03/26 08:29:43;;;;;;;19.08;16.20;;;;;;;;;;10112690;28;20136;-67
2023/03/26 08:34:38;;;;;;;16.33;14.55;;;;;;;;;;10132676;28;20135;-67
2023/03/26 08:39:32;;;;;;;16.30;14.63;;;;;;;;;;10145981;28;20052;-66
2023/03/26 08:44:54;;;;;;;19.92;15.10;;;;;;;;;;10160013;28;20468;-74
2023/03/26 08:49:50;;;;;;;17.73;14.88;;;;;;;;;;10177561;28;20412;-71
2023/03/26 08:55:03;;;;;;;18.77;16.00;;;;;;;;;;10191787;28;20044;-73
2023/03/26 09:00:17;;;;;;;16.08;14.48;;;;;;;;;;10195418;28;20093;-74
2023/03/26 09:05:44;;;;;;;18.95;15.43;;;;;;;;;;10190269;28;20052;-75
2023/03/26 09:11:23;;;;;;;15.90;14.40;;;;;;;;;;10147523;28;20134;-75
2023/03/26 09:16:53;;;;;;;16.10;12.13;;;;;;;;;;10167066;28;20097;-74
2023/03/26 09:21:54;;;;;;;13.15;11.65;;;;;;;;;;10187798;28;20067;-72
2023/03/26 09:27:10;;;;;;;11.55;10.35;;;;;;;;;;10185270;28;20504;-74
2023/03/26 09:32:28;;;;;;;12.25;11.07;;;;;;;;;;10189720;28;20079;-82
2023/03/26 09:37:27;;;;;;;13.20;10.77;;;;;;;;;;10180110;28;20527;-82
2023/03/26 09:42:37;;;;;;;10.50;8.55;;;;;;;;;;10182083;28;20434;-80
2023/03/26 09:48:04;;;;;;;11.88;9.18;;;;;;;;;;10187389;28;20063;-85
2023/03/26 09:53:03;;;;;;;10.77;9.48;;;;;;;;;;10183235;28;20437;-75
2023/03/26 09:58:04;;;;;;;11.35;10.25;;;;;;;;;;10184925;28;20396;-74
2023/03/26 10:02:57;;;;;;;9.15;8.25;;;;;;;;;;10182754;28;20062;-75
2023/03/26 10:08:28;;;;;;;11.55;9.10;;;;;;;;;;10188833;28;20504;-72
2023/03/26 10:14:06;;;;;;;11.32;8.32;;;;;;;;;;10186557;28;20643;-72
2023/03/26 10:19:28;;;;;;;9.32;7.80;;;;;;;;;;10175657;28;20055;-72
2023/03/26 10:24:41;;;;;;;11.98;8.13;;;;;;;;;;10169338;28;20193;-72
2023/03/26 10:29:37;;;;;;;10.50;7.93;;;;;;;;;;10174547;28;20060;-71
2023/03/26 10:34:50;;;;;;;7.85;6.60;;;;;;;;;;10187246;28;20094;-72
2023/03/26 10:39:58;;;;;;;10.50;8.15;;;;;;;;;;10187280;28;20476;-71
2023/03/26 10:45:06;;;;;;;8.50;7.47;;;;;;;;;;10168337;28;20117;-77
2023/03/26 10:50:24;;;;;;;9.30;8.38;;;;;;;;;;10186799;28;20282;-77
2023/03/26 10:55:45;;;;;;;10.38;8.50;;;;;;;;;;10178587;28;20051;-76
2023/03/26 11:00:43;;;;;;;11.73;9.00;;;;;;;;;;10179548;28;20451;-77
2023/03/26 11:06:13;;;;;;;10.45;8.98;;;;;;;;;;10170264;28;20474;-77
2023/03/26 11:11:21;;;;;;;13.57;7.40;;;;;;;;;;10185678;28;20412;-77
2023/03/26 11:16:36;;;;;;;9.50;8.50;;;;;;;;;;10168422;28;20052;-76
2023/03/26 11:21:41;;;;;;;10.15;8.07;;;;;;;;;;10175320;28;20044;-82
2023/03/26 11:26:57;;;;;;;14.02;7.43;;;;;;;;;;10157290;28;20557;-79
2023/03/26 11:32:22;;;;;;;8.43;7.40;;;;;;;;;;10170724;28;20156;-83
2023/03/26 11:37:28;;;;;;;9.83;6.60;;;;;;;;;;10145355;28;20052;-80
2023/03/26 11:42:23;;;;;;;11.38;6.80;;;;;;;;;;10153276;28;20051;-79
2023/03/26 11:47:22;;;;;;;13.38;7.05;;;;;;;;;;10179651;28;20710;-77
2023/03/26 11:52:15;;;;;;;7.88;5.75;;;;;;;;;;10168702;28;20093;-77
2023/03/26 11:57:13;;;;;;;11.30;5.15;;;;;;;;;;10184285;28;20040;-78
2023/03/26 12:02:08;;;;;;;12.23;7.88;;;;;;;;;;10184805;28;20040;-75
2023/03/26 12:07:16;;;;;;;9.85;7.65;;;;;;;;;;10169708;28;20047;-78
2023/03/26 12:12:10;;;;;;;8.40;5.22;;;;;;;;;;10173201;28;20048;-76
2023/03/26 12:17:28;;;;;;;8.48;5.85;;;;;;;;;;10167028;28;20043;-76
2023/03/26 12:22:36;;;;;;;7.18;5.65;;;;;;;;;;10177743;28;20048;-77
2023/03/26 12:27:29;;;;;;;8.23;6.97;;;;;;;;;;10184204;28;20059;-76
2023/03/26 12:32:24;;;;;;;7.75;5.97;;;;;;;;;;10180382;28;20045;-75
2023/03/26 12:37:39;;;;;;;8.68;6.03;;;;;;;;;;10174898;28;20051;-78
2023/03/26 12:42:33;;;;;;;9.27;5.43;;;;;;;;;;10179867;28;20519;-78
2023/03/26 12:47:46;;;;;;;6.55;4.00;;;;;;;;;;10167710;28;20063;-78
2023/03/26 12:53:32;;;;;;;8.10;4.47;;;;;;;;;;10176904;28;20042;-79
2023/03/26 12:58:53;;;;;;;9.07;4.20;;;;;;;;;;10156184;28;20056;-76
2023/03/26 13:04:07;;;;;;;7.00;3.50;;;;;;;;;;10178166;28;20054;-77
2023/03/26 13:09:03;;;;;;;5.18;2.90;;;;;;;;;;10173458;28;20150;-76
2023/03/26 13:14:13;;;;;;;4.65;2.80;;;;;;;;;;10167539;28;20048;-81
2023/03/26 13:19:16;;;;;;;6.82;2.90;;;;;;;;;;10182591;28;20081;-76
2023/03/26 13:24:17;;;;;;;4.00;2.50;;;;;;;;;;10182660;28;20098;-79
2023/03/26 13:29:31;;;;;;;7.03;2.40;;;;;;;;;;10163022;28;20559;-80
2023/03/26 13:34:54;;;;;;;5.20;2.10;;;;;;;;;;10183101;28;20500;-81
2023/03/26 13:39:52;;;;;;;4.03;2.78;;;;;;;;;;10163075;28;20485;-82
2023/03/26 13:45:13;;;;;;;3.08;2.30;;;;;;;;;;10179578;28;20056;-81
2023/03/26 13:50:17;;;;;;;5.07;2.00;;;;;;;;;;10180442;28;20047;-82
2023/03/26 13:55:28;;;;;;;5.00;2.50;;;;;;;;;;10178444;28;20421;-83
2023/03/26 14:00:31;;;;;;;6.80;2.30;;;;;;;;;;10180816;28;20129;-84
2023/03/26 14:05:32;;;;;;;5.35;2.72;;;;;;;;;;10181599;28;20047;-82
2023/03/26 14:10:29;;;;;;;10.45;2.42;;;;;;;;;;10167072;28;20052;-79
2023/03/26 14:15:41;;;;;;;7.55;2.92;;;;;;;;;;10158053;28;20508;-84
2023/03/26 14:21:01;;;;;;;6.75;2.63;;;;;;;;;;10159303;28;20044;-80
2023/03/26 14:26:06;;;;;;;7.72;2.65;;;;;;;;;;10172310;28;20508;-72
2023/03/26 14:31:10;;;;;;;9.65;6.03;;;;;;;;;;10173708;28;20408;-76
2023/03/26 14:36:31;;;;;;;6.05;2.08;;;;;;;;;;10176039;28;20079;-77
2023/03/26 14:41:29;;;;;;;1.83;1.60;;;;;;;;;;10170422;28;20787;-77
2023/03/26 14:47:05;;;;;;;3.88;1.95;;;;;;;;;;10168666;28;20056;-79
2023/03/26 14:52:06;;;;;;;10.40;3.67;;;;;;;;;;10150826;28;20504;-77
2023/03/26 14:57:21;;;;;;;2.63;1.83;;;;;;;;;;10172798;28;20059;-78
2023/03/26 15:02:34;;;;;;;3.25;1.88;;;;;;;;;;10177626;28;20052;-79
2023/03/26 15:08:00;;;;;;;3.10;1.75;;;;;;;;;;10179616;28;20068;-79
2023/03/26 15:13:12;;;;;;;9.35;2.22;;;;;;;;;;10174961;28;20127;-85
2023/03/26 15:18:21;;;;;;;4.00;1.85;;;;;;;;;;10180900;28;20040;-79
2023/03/26 15:23:32;;;;;;;1.90;1.55;;;;;;;;;;10177341;28;20416;-77
2023/03/26 15:28:32;;;;;;;6.88;1.40;;;;;;;;;;10170108;28;20051;-78
2023/03/26 15:33:43;;;;;;;3.53;2.17;;;;;;;;;;10162232;28;20078;-78
2023/03/26 15:38:57;;;;;;;4.97;2.90;;;;;;;;;;10169872;28;20060;-81
2023/03/26 15:43:56;;;;;;;2.97;1.60;;;;;;;;;;10179519;28;20052;-84
2023/03/26 15:49:38;;;;;;;2.00;1.80;;;;;;;;;;10183518;28;20051;-82
2023/03/26 15:54:52;;;;;;;18.17;13.85;;;;;;;;;;10171239;27;20090;-81
2023/03/26 15:59:53;;;;;;;2.30;1.90;;;;;;;;;;10169700;28;20064;-81
2023/03/26 16:05:01;;;;;;;7.05;5.78;;;;;;;;;;10171213;28;20044;-78
2023/03/26 16:10:27;;;;;;;8.20;2.40;;;;;;;;;;10167397;28;20460;-84
2023/03/26 16:15:28;;;;;;;1.90;1.60;;;;;;;;;;10189976;28;20530;-82
2023/03/26 16:20:32;;;;;;;4.22;1.40;;;;;;;;;;10171797;28;20048;-82
2023/03/26 16:25:35;;;;;;;1.60;1.27;;;;;;;;;;10170044;28;20040;-82
2023/03/26 16:30:30;;;;;;;1.90;1.27;;;;;;;;;;10183924;28;20068;-81
2023/03/26 16:36:01;;;;;;;5.28;3.42;;;;;;;;;;10196671;28;20405;-81
2023/03/26 16:41:02;;;;;;;13.38;7.55;;;;;;;;;;10140697;28;20077;-77
2023/03/26 16:46:19;;;;;;;12.63;6.60;;;;;;;;;;10182640;28;20131;-74
2023/03/26 16:51:41;;;;;;;11.52;7.28;;;;;;;;;;10189516;28;20420;-75
2023/03/26 16:56:52;;;;;;;12.48;8.30;;;;;;;;;;10179555;28;20542;-74
2023/03/26 17:01:47;;;;;;;13.88;9.95;;;;;;;;;;10180912;28;20072;-79
2023/03/26 17:06:52;;;;;;;13.75;8.88;;;;;;;;;;10165004;28;20089;-80
2023/03/26 17:12:10;;;;;;;11.63;9.73;;;;;;;;;;10183747;28;20082;-75
2023/03/26 17:17:57;;;;;;;16.93;11.30;;;;;;;;;;10184718;28;20040;-78
2023/03/26 17:22:57;;;;;;;18.83;10.80;;;;;;;;;;10078087;28;20048;-76
2023/03/26 17:28:06;;;;;;;15.52;7.15;;;;;;;;;;10163407;28;20105;-71
2023/03/26 17:33:00;;;;;;;6.22;4.32;;;;;;;;;;10181274;28;20044;-72
2023/03/26 17:37:58;;;;;;;9.15;6.28;;;;;;;;;;10177629;28;20042;-73
2023/03/26 17:43:07;;;;;;;8.63;4.47;;;;;;;;;;10182556;28;20437;-73
2023/03/26 17:48:15;;;;;;;5.90;4.88;;;;;;;;;;10183547;28;20059;-74
2023/03/26 17:53:20;;;;;;;6.93;4.30;;;;;;;;;;10187581;28;20135;-74
2023/03/26 17:58:35;;;;;;;8.77;4.00;;;;;;;;;;10187789;28;20300;-74
2023/03/26 18:03:38;;;;;;;5.60;3.60;;;;;;;;;;10166961;28;20052;-73
2023/03/26 18:08:59;;;;;;;6.32;3.78;;;;;;;;;;10164911;28;20394;-74
2023/03/26 18:14:21;;;;;;;5.35;4.85;;;;;;;;;;10185747;28;20048;-74
2023/03/26 18:19:17;;;;;;;5.22;2.50;;;;;;;;;;10179446;28;20509;-73
2023/03/26 18:24:36;;;;;;;4.28;3.35;;;;;;;;;;10186776;28;20515;-73
2023/03/26 18:29:35;;;;;;;2.65;2.35;;;;;;;;;;10185457;28;20056;-70
2023/03/26 18:34:31;;;;;;;3.72;2.17;;;;;;;;;;10189168;28;20125;-74
2023/03/26 18:39:24;;;;;;;7.22;4.28;;;;;;;;;;10187948;28;20059;-74
2023/03/26 18:44:18;;;;;;;3.28;2.72;;;;;;;;;;10178524;28;20493;-73
2023/03/26 18:49:14;;;;;;;13.38;2.20;;;;;;;;;;10157501;28;20052;-72
2023/03/26 18:54:08;;;;;;;1.50;0.80;;;;;;;;;;10165227;28;20101;-75
2023/03/26 18:59:04;;;;;;;2.03;1.45;;;;;;;;;;10169230;28;20135;-74
2023/03/26 19:04:07;;;;;;;3.33;1.95;;;;;;;;;;10184011;28;20139;-74
2023/03/26 19:09:05;;;;;;;1.38;0.93;;;;;;;;;;10177991;28;20059;-74
2023/03/26 19:14:17;;;;;;;1.85;1.15;;;;;;;;;;10183016;28;20048;-74
2023/03/26 19:19:13;;;;;;;;;;;;;;;;;;10184467;28;20123;-74
2023/03/26 19:24:05;;;;;;;3.35;1.50;;;;;;;;;;10180218;28;19927;-74
2023/03/26 19:29:00;;;;;;;2.45;1.42;;;;;;;;;;10184466;28;20557;-74
2023/03/26 19:34:18;;;;;;;1.80;1.70;;;;;;;;;;10185784;28;20377;-74
2023/03/26 19:39:12;;;;;;;1.65;1.40;;;;;;;;;;10171345;28;20101;-76
2023/03/26 19:44:20;;;;;;;1.00;1.00;;;;;;;;;;10177848;28;20125;-78
2023/03/26 19:49:28;;;;;;;1.40;1.20;;;;;;;;;;10179487;28;20061;-78
2023/03/26 19:54:22;;;;;;;2.25;1.35;;;;;;;;;;10184537;28;20044;-76
2023/03/26 19:59:16;;;;;;;1.52;1.42;;;;;;;;;;10184712;28;20472;-78
2023/03/26 20:04:12;;;;;;;6.68;2.40;;;;;;;;;;10174487;28;20044;-76
2023/03/26 20:09:09;;;;;;;2.10;1.75;;;;;;;;;;10184620;28;20060;-76
2023/03/26 20:14:16;;;;;;;5.35;2.85;;;;;;;;;;10179601;28;20628;-75
2023/03/26 20:19:09;;;;;;;3.50;2.90;;;;;;;;;;10175381;28;20123;-77
2023/03/26 20:24:16;;;;;;;8.57;4.38;;;;;;;;;;10183606;28;20484;-77
2023/03/26 20:29:10;;;;;;;6.35;4.10;;;;;;;;;;10183953;28;20443;-77
2023/03/26 20:34:06;;;;;;;5.57;2.85;;;;;;;;;;10180096;28;20060;-79
2023/03/26 20:39:00;;;;;;;4.60;2.88;;;;;;;;;;10166801;28;20098;-79
2023/03/26 20:43:53;;;;;;;5.88;3.20;;;;;;;;;;10191097;28;20082;-79
2023/03/26 20:48:48;;;;;;;3.00;2.70;;;;;;;;;;10187673;28;20052;-77
2023/03/26 20:53:42;;;;;;;2.17;2.00;;;;;;;;;;10189023;28;20048;-78
2023/03/26 20:58:37;;;;;;;1.67;1.58;;;;;;;;;;10186726;28;20054;-77
2023/03/26 21:03:30;;;;;;;2.75;1.80;;;;;;;;;;10176637;28;20091;-78
2023/03/26 21:08:28;;;;;;;2.85;2.63;;;;;;;;;;10168168;28;20070;-77
2023/03/26 21:13:54;;;;;;;5.78;4.03;;;;;;;;;;10179644;28;20101;-74
2023/03/26 21:18:57;;;;;;;3.78;3.33;;;;;;;;;;10181380;28;20109;-76
2023/03/26 21:23:58;;;;;;;4.20;3.80;;;;;;;;;;10204322;28;20036;-73
2023/03/26 21:28:52;;;;;;;4.10;3.65;;;;;;;;;;10175376;28;20500;-69
2023/03/26 21:33:48;;;;;;;4.30;2.85;;;;;;;;;;10178053;28;20105;-75
2023/03/26 21:38:44;;;;;;;4.93;3.60;;;;;;;;;;10172974;28;20057;-76
2023/03/26 21:43:38;;;;;;;5.97;3.22;;;;;;;;;;10176295;28;20040;-75
2023/03/26 21:48:33;;;;;;;2.90;2.60;;;;;;;;;;10173840;28;20050;-74
2023/03/26 21:53:30;;;;;;;3.72;3.10;;;;;;;;;;10176399;28;20093;-75
2023/03/26 21:58:30;;;;;;;2.78;2.53;;;;;;;;;;10183989;28;20485;-75
2023/03/26 22:03:46;;;;;;;4.57;3.13;;;;;;;;;;10181683;28;20478;-76
2023/03/26 22:08:40;;;;;;;2.90;2.70;;;;;;;;;;10181822;28;20097;-76
2023/03/26 22:13:37;;;;;;;4.22;3.22;;;;;;;;;;10185129;28;21422;-76
2023/03/26 22:18:32;;;;;;;3.17;2.80;;;;;;;;;;10181679;28;20127;-76
2023/03/26 22:23:26;;;;;;;5.82;4.43;;;;;;;;;;10184202;28;20504;-76
2023/03/26 22:28:21;;;;;;;6.85;4.68;;;;;;;;;;10181972;28;20255;-76
2023/03/26 22:33:16;;;;;;;7.00;5.82;;;;;;;;;;10177421;28;20488;-77
2023/03/26 22:38:10;;;;;;;9.65;7.28;;;;;;;;;;10179781;28;20446;-77
2023/03/26 22:43:03;;;;;;;7.85;6.55;;;;;;;;;;10177418;28;20447;-76
2023/03/26 22:47:57;;;;;;;7.70;6.70;;;;;;;;;;10179375;28;20566;-77
2023/03/26 22:52:55;;;;;;;6.90;5.90;;;;;;;;;;10178902;28;20492;-76
2023/03/26 22:57:50;;;;;;;6.90;5.72;;;;;;;;;;10178860;28;20051;-77
2023/03/26 23:02:44;;;;;;;8.63;5.40;;;;;;;;;;10156567;28;20079;-75
2023/03/26 23:07:38;;;;;;;6.47;5.03;;;;;;;;;;10177020;28;20139;-75
2023/03/26 23:12:31;;;;;;;7.75;5.15;;;;;;;;;;10183395;28;20094;-79
2023/03/26 23:17:25;;;;;;;5.93;5.00;;;;;;;;;;10194903;28;20047;-78
2023/03/26 23:22:19;;;;;;;7.22;4.65;;;;;;;;;;10174891;28;20049;-78
2023/03/26 23:27:11;;;;;;;6.13;5.30;;;;;;;;;;10175530;28;20098;-78
2023/03/26 23:32:05;;;;;;;5.93;4.80;;;;;;;;;;10177952;28;20050;-78
2023/03/26 23:37:21;;;;;;;7.88;4.95;;;;;;;;;;10175870;28;20093;-78
2023/03/26 23:42:15;;;;;;;11.27;6.45;;;;;;;;;;10179121;28;20064;-77
2023/03/26 23:47:20;;;;;;;6.07;5.47;;;;;;;;;;10176883;28;20055;-77
2023/03/26 23:52:14;;;;;;;6.90;6.00;;;;;;;;;;10173171;28;20055;-77
2023/03/26 23:57:09;;;;;;;7.20;5.80;;;;;;;;;;10176028;28;20055;-77
